Time;durP1;ratioP1;P1;durP2;ratioP2;P2;SDS_P1;SDS_P2;PMS_P1;PMS_P2;Temp;Humidity;BMP_temperature;BMP_pressure;BME280_temperature;BME280_humidity;BME280_pressure;Samples;Min_cycle;Max_cycle;Signal;HPM_P1;HPM_P2
2024/02/25 00:01:41;;;;;;;10.75;4.05;;;7.10;99.90;;;6.35;100.00;99717.38;4164023;28;20017;-72
2024/02/25 00:03:41;;;;;;;8.90;3.83;;;7.10;99.90;;;6.36;100.00;99718.97;4167732;28;20132;-73
2024/02/25 00:05:43;;;;;;;10.25;3.22;;;7.10;99.90;;;6.36;100.00;99724.22;4167856;28;20101;-75
2024/02/25 00:07:45;;;;;;;6.93;3.53;;;7.10;99.90;;;6.35;100.00;99719.16;4168885;28;20033;-75
2024/02/25 00:09:45;;;;;;;7.88;2.55;;;7.10;99.90;;;6.34;100.00;99709.66;4169011;28;20064;-75
2024/02/25 00:11:46;;;;;;;6.80;3.22;;;7.00;99.90;;;6.32;100.00;99708.97;4167482;28;20052;-75
2024/02/25 00:13:47;;;;;;;7.03;3.00;;;7.00;99.90;;;6.31;100.00;99702.91;4168817;28;20028;-75
2024/02/25 00:15:48;;;;;;;9.60;3.95;;;7.00;99.90;;;6.29;100.00;99699.66;4168736;28;20025;-75
2024/02/25 00:17:49;;;;;;;10.35;3.17;;;7.00;99.90;;;6.30;100.00;99695.22;4167460;28;20025;-75
2024/02/25 00:19:50;;;;;;;7.82;2.85;;;7.00;99.90;;;6.27;100.00;99691.13;4168851;28;20026;-75
2024/02/25 00:21:51;;;;;;;7.60;3.55;;;7.00;99.90;;;6.29;100.00;99698.81;4167435;28;20052;-75
2024/02/25 00:23:51;;;;;;;6.70;2.95;;;7.00;99.90;;;6.27;100.00;99696.38;4167755;28;20033;-75
2024/02/25 00:25:52;;;;;;;8.95;3.55;;;7.00;99.90;;;6.28;100.00;99692.75;4168415;28;20026;-75
2024/02/25 00:27:53;;;;;;;8.60;2.72;;;7.00;99.90;;;6.28;100.00;99695.38;4167585;28;20470;-75
2024/02/25 00:29:54;;;;;;;4.15;2.10;;;7.00;99.90;;;6.29;100.00;99691.78;4184229;28;20519;-75
2024/02/25 00:31:55;;;;;;;7.57;2.13;;;7.00;99.90;;;6.32;100.00;99685.41;4159617;28;20029;-75
2024/02/25 00:33:55;;;;;;;5.45;1.95;;;7.00;99.90;;;6.30;100.00;99688.16;4152214;28;20037;-75
2024/02/25 00:35:56;;;;;;;6.03;2.13;;;7.00;99.90;;;6.30;100.00;99680.31;4152136;28;20026;-75
2024/02/25 00:37:57;;;;;;;10.05;2.28;;;7.00;99.90;;;6.31;100.00;99683.75;4152487;28;20022;-75
2024/02/25 00:39:58;;;;;;;8.05;2.40;;;7.00;99.90;;;6.32;100.00;99674.94;4151351;28;20105;-75
2024/02/25 00:42:01;;;;;;;6.22;2.22;;;7.00;99.90;;;6.34;100.00;99672.97;4154805;28;20028;-75
2024/02/25 00:44:02;;;;;;;4.90;1.87;;;7.00;99.90;;;6.35;100.00;99661.53;4150957;28;20033;-75
2024/02/25 00:46:03;;;;;;;9.40;2.72;;;7.10;99.90;;;6.37;100.00;99663.03;4157754;28;20124;-75
2024/02/25 00:48:05;;;;;;;7.32;2.70;;;7.10;99.90;;;6.36;100.00;99658.75;4152046;28;20112;-75
2024/02/25 00:50:06;;;;;;;6.63;2.50;;;7.10;99.90;;;6.34;100.00;99652.84;4150902;28;20033;-75
2024/02/25 00:52:07;;;;;;;4.47;2.05;;;7.10;99.90;;;6.37;100.00;99655.16;4150620;28;20101;-75
2024/02/25 00:54:08;;;;;;;7.57;2.75;;;7.10;99.90;;;6.39;100.00;99663.69;4167380;28;20128;-75
2024/02/25 00:56:09;;;;;;;7.97;2.65;;;7.10;99.90;;;6.41;100.00;99651.25;4168457;28;20021;-75
2024/02/25 00:58:10;;;;;;;8.38;2.67;;;7.10;99.90;;;6.41;100.00;99643.41;4167301;28;20026;-75
2024/02/25 01:00:11;;;;;;;11.15;3.45;;;7.10;99.90;;;6.45;100.00;99642.09;4180214;28;20029;-75
2024/02/25 01:02:12;;;;;;;12.45;3.42;;;7.20;99.90;;;6.47;100.00;99639.34;4163863;28;20105;-75
2024/02/25 01:04:13;;;;;;;11.43;3.25;;;7.20;99.90;;;6.44;100.00;99635.22;4152099;28;20037;-75
2024/02/25 01:06:14;;;;;;;10.05;3.25;;;7.20;99.90;;;6.49;100.00;99643.44;4152065;28;20387;-75
2024/02/25 01:08:15;;;;;;;8.05;2.88;;;7.20;99.90;;;6.48;100.00;99647.03;4151931;28;20432;-75
2024/02/25 01:10:16;;;;;;;11.38;3.30;;;7.20;99.90;;;6.56;100.00;99649.69;4150991;28;20041;-75
2024/02/25 01:12:17;;;;;;;8.85;2.75;;;7.30;99.90;;;6.59;100.00;99654.63;4160739;28;20030;-75
2024/02/25 01:14:19;;;;;;;9.55;1.98;;;7.30;99.90;;;6.67;100.00;99644.19;4154481;28;20080;-76
2024/02/25 01:16:20;;;;;;;9.98;2.08;;;7.40;99.90;;;6.71;100.00;99642.06;4155192;28;20024;-76
2024/02/25 01:18:21;;;;;;;9.20;1.55;;;7.40;99.90;;;6.72;100.00;99633.19;4162693;28;20025;-76
2024/02/25 01:20:22;;;;;;;10.07;2.85;;;7.40;99.90;;;6.75;100.00;99632.09;4186773;28;20029;-75
2024/02/25 01:22:23;;;;;;;8.30;1.75;;;7.40;99.90;;;6.75;100.00;99627.66;4170281;28;20036;-76
2024/02/25 01:24:24;;;;;;;6.40;1.92;;;7.40;99.90;;;6.72;100.00;99621.94;4170408;28;20068;-76
2024/02/25 01:26:24;;;;;;;10.40;1.70;;;7.40;99.90;;;6.73;100.00;99616.50;4171273;28;20030;-75
2024/02/25 01:28:25;;;;;;;8.90;1.50;;;7.40;99.90;;;6.69;100.00;99618.63;4171557;28;20481;-75
2024/02/25 01:30:26;;;;;;;14.30;1.85;;;7.40;99.90;;;6.64;100.00;99599.94;4170219;28;20385;-76
2024/02/25 01:32:27;;;;;;;6.03;1.50;;;7.40;99.90;;;6.69;100.00;99609.94;4157763;28;20445;-75
2024/02/25 01:34:28;;;;;;;8.43;1.20;;;7.40;99.90;;;6.70;100.00;99603.72;4154845;28;20409;-75
2024/02/25 01:36:29;;;;;;;7.30;1.52;;;7.40;99.90;;;6.69;100.00;99597.66;4154818;28;20061;-76
2024/02/25 01:38:30;;;;;;;6.75;1.30;;;7.40;99.90;;;6.69;100.00;99594.22;4155028;28;20037;-76
2024/02/25 01:40:31;;;;;;;10.48;2.03;;;7.40;99.90;;;6.70;100.00;99595.88;4155218;28;20022;-75
2024/02/25 01:42:32;;;;;;;8.75;1.58;;;7.40;99.90;;;6.68;100.00;99588.19;4154011;28;20497;-76
2024/02/25 01:44:33;;;;;;;6.03;1.42;;;7.40;99.90;;;6.70;100.00;99588.00;4154735;28;20493;-76
2024/02/25 01:46:33;;;;;;;7.50;1.63;;;7.40;99.90;;;6.70;100.00;99574.91;4160080;28;20029;-76
2024/02/25 01:48:35;;;;;;;7.38;1.27;;;7.40;99.90;;;6.70;100.00;99577.53;4165595;28;20045;-76
2024/02/25 01:50:37;;;;;;;11.57;1.95;;;7.40;99.90;;;6.66;100.00;99566.53;4155482;28;20408;-76
2024/02/25 01:52:38;;;;;;;4.32;1.02;;;7.40;99.90;;;6.69;100.00;99568.84;4153360;28;20057;-75
2024/02/25 01:54:39;;;;;;;5.70;1.30;;;7.40;99.90;;;6.66;100.00;99561.28;4154549;28;20026;-76
2024/02/25 01:56:40;;;;;;;4.78;1.17;;;7.40;99.90;;;6.68;100.00;99561.16;4153165;28;20014;-76
2024/02/25 01:58:43;;;;;;;5.38;1.00;;;7.40;99.90;;;6.66;100.00;99557.84;4154353;28;20036;-76
2024/02/25 02:00:45;;;;;;;9.82;1.20;;;7.40;99.90;;;6.63;100.00;99555.56;4156470;28;20025;-76
2024/02/25 02:02:46;;;;;;;3.38;1.20;;;7.40;99.90;;;6.64;100.00;99549.34;4169723;28;20028;-76
2024/02/25 02:04:46;;;;;;;6.30;1.20;;;7.40;99.90;;;6.66;100.00;99552.59;4157477;28;20018;-76
2024/02/25 02:06:47;;;;;;;4.40;1.38;;;7.40;99.90;;;6.63;100.00;99545.88;4169725;28;20025;-76
2024/02/25 02:08:48;;;;;;;8.50;1.55;;;7.40;99.90;;;6.64;100.00;99547.53;4169510;28;20547;-76
2024/02/25 02:10:49;;;;;;;7.25;1.40;;;7.40;99.90;;;6.62;100.00;99539.03;4170382;28;20021;-76
2024/02/25 02:12:50;;;;;;;6.07;1.75;;;7.40;99.90;;;6.62;100.00;99533.78;4152902;28;20482;-76
2024/02/25 02:14:51;;;;;;;9.23;2.00;;;7.30;99.90;;;6.65;100.00;99532.63;4154110;28;20026;-76
2024/02/25 02:16:52;;;;;;;5.03;2.00;;;7.40;99.90;;;6.63;100.00;99524.94;4154425;28;20048;-76
2024/02/25 02:18:53;;;;;;;8.25;2.72;;;7.30;99.90;;;6.64;100.00;99520.50;4154117;28;20022;-76
2024/02/25 02:20:53;;;;;;;6.63;2.55;;;7.40;99.90;;;6.64;100.00;99517.88;4158257;28;20127;-75
2024/02/25 02:22:55;;;;;;;6.00;2.47;;;7.40;99.90;;;6.64;100.00;99518.72;4155796;28;20034;-76
2024/02/25 02:24:56;;;;;;;6.82;1.92;;;7.40;99.90;;;6.63;100.00;99508.41;4152021;28;20085;-76
2024/02/25 02:26:56;;;;;;;8.40;2.33;;;7.40;99.90;;;6.61;100.00;99502.50;4169080;28;20018;-76
2024/02/25 02:28:58;;;;;;;4.38;1.88;;;7.40;99.90;;;6.63;100.00;99506.59;4154045;28;20022;-75
2024/02/25 02:30:58;;;;;;;6.85;2.47;;;7.30;99.90;;;6.61;100.00;99492.00;4157231;28;20022;-75
2024/02/25 02:32:59;;;;;;;6.35;1.70;;;7.30;99.90;;;6.64;100.00;99500.38;4170390;28;20029;-75
2024/02/25 02:35:01;;;;;;;7.32;1.45;;;7.30;99.90;;;6.65;100.00;99501.19;4170306;28;20030;-75
2024/02/25 02:37:02;;;;;;;8.27;2.25;;;7.30;99.90;;;6.66;100.00;99498.41;4169145;28;20056;-75
2024/02/25 02:39:04;;;;;;;9.70;2.03;;;7.40;99.90;;;6.67;100.00;99486.94;4168960;28;20026;-75
2024/02/25 02:41:06;;;;;;;10.98;1.92;;;7.40;99.90;;;6.67;100.00;99489.56;4163425;28;20029;-75
2024/02/25 02:43:06;;;;;;;9.55;1.88;;;7.40;99.90;;;6.68;100.00;99475.50;4168882;28;20030;-75
2024/02/25 02:45:08;;;;;;;7.22;1.83;;;7.40;99.90;;;6.68;100.00;99483.34;4168826;28;20080;-75
2024/02/25 02:47:09;;;;;;;5.47;2.10;;;7.40;99.90;;;6.70;100.00;99475.31;4155220;28;20091;-75
2024/02/25 02:49:10;;;;;;;11.85;2.33;;;7.40;99.90;;;6.69;100.00;99468.44;4153461;28;20050;-75
2024/02/25 02:51:11;;;;;;;8.50;1.98;;;7.40;99.90;;;6.71;100.00;99470.91;4159836;28;20045;-75
2024/02/25 02:53:12;;;;;;;6.70;1.60;;;7.40;99.90;;;6.72;100.00;99456.84;4168797;28;20034;-75
2024/02/25 02:55:13;;;;;;;8.00;2.00;;;7.40;99.90;;;6.71;100.00;99457.81;4169904;28;20412;-75
2024/02/25 02:57:14;;;;;;;8.45;1.98;;;7.40;99.90;;;6.72;100.00;99451.59;4169735;28;20068;-76
2024/02/25 02:59:16;;;;;;;9.32;1.90;;;7.40;99.90;;;6.73;100.00;99451.41;4168952;28;20052;-76
2024/02/25 03:01:17;;;;;;;13.30;2.75;;;7.40;99.90;;;6.75;100.00;99453.88;4169836;28;20033;-75
2024/02/25 03:03:17;;;;;;;9.07;1.92;;;7.40;99.90;;;6.75;100.00;99449.44;4156957;28;20021;-75
2024/02/25 03:05:18;;;;;;;8.32;2.83;;;7.50;99.90;;;6.81;100.00;99453.22;4154036;28;20029;-75
2024/02/25 03:07:19;;;;;;;9.50;3.00;;;7.50;99.90;;;6.82;100.00;99447.81;4153417;28;20022;-76
2024/02/25 03:09:21;;;;;;;11.63;2.00;;;7.50;99.90;;;6.82;100.00;99441.75;4152210;28;20030;-76
2024/02/25 03:11:22;;;;;;;5.30;2.08;;;7.50;99.90;;;6.86;100.00;99443.06;4175477;28;20029;-76
2024/02/25 03:13:23;;;;;;;7.50;2.33;;;7.60;99.90;;;6.89;100.00;99438.31;4152462;28;20081;-75
2024/02/25 03:15:24;;;;;;;16.65;3.60;;;7.50;99.90;;;6.88;100.00;99434.06;4168422;28;20024;-75
2024/02/25 03:17:25;;;;;;;8.18;1.70;;;7.60;99.90;;;6.91;100.00;99438.16;4152083;28;20410;-75
2024/02/25 03:19:25;;;;;;;12.00;2.35;;;7.60;99.90;;;6.97;100.00;99433.06;4153206;28;20024;-75
2024/02/25 03:21:26;;;;;;;12.32;2.35;;;7.60;99.90;;;7.00;100.00;99424.06;4167306;28;20022;-75
2024/02/25 03:23:27;;;;;;;9.18;1.55;;;7.70;99.90;;;7.00;100.00;99418.81;4177616;28;20037;-75
2024/02/25 03:25:28;;;;;;;7.60;1.38;;;7.70;99.90;;;6.99;100.00;99414.56;4159188;28;20034;-76
2024/02/25 03:27:29;;;;;;;8.10;1.90;;;7.70;99.90;;;6.99;100.00;99406.69;4168259;28;20029;-75
2024/02/25 03:29:30;;;;;;;11.68;2.08;;;7.70;99.90;;;7.00;100.00;99409.16;4152996;28;20034;-75
2024/02/25 03:31:33;;;;;;;7.40;1.58;;;7.70;99.90;;;7.02;100.00;99398.47;4160053;28;20098;-75
2024/02/25 03:33:35;;;;;;;7.88;1.67;;;7.70;99.90;;;7.01;100.00;99391.63;4169385;28;20581;-75
2024/02/25 03:35:36;;;;;;;5.40;1.55;;;7.70;99.90;;;6.99;100.00;99383.09;4169169;28;20021;-75
2024/02/25 03:37:38;;;;;;;6.43;2.22;;;7.70;99.90;;;7.00;100.00;99384.72;4167881;28;20032;-75
2024/02/25 03:39:39;;;;;;;7.97;1.35;;;7.70;99.90;;;7.00;100.00;99379.47;4169301;28;20033;-75
2024/02/25 03:41:40;;;;;;;6.40;1.42;;;7.70;99.90;;;6.99;100.00;99372.63;4160463;28;20128;-75
2024/02/25 03:43:41;;;;;;;7.65;1.15;;;7.70;99.90;;;7.03;100.00;99369.50;4151778;28;20077;-76
2024/02/25 03:45:42;;;;;;;9.63;1.55;;;7.70;99.90;;;7.06;100.00;99373.56;4173407;28;20017;-76
2024/02/25 03:47:43;;;;;;;8.25;2.55;;;7.70;99.90;;;7.09;100.00;99362.75;4151746;28;20108;-75
2024/02/25 03:49:44;;;;;;;12.02;2.47;;;7.80;99.90;;;7.10;100.00;99359.16;4167672;28;20108;-75
2024/02/25 03:51:45;;;;;;;10.32;1.73;;;7.80;99.90;;;7.14;100.00;99368.31;4151191;28;20034;-75
2024/02/25 03:53:46;;;;;;;10.55;2.15;;;7.80;99.90;;;7.18;100.00;99359.13;4154290;28;20037;-76
2024/02/25 03:55:47;;;;;;;9.13;1.80;;;7.80;99.90;;;7.20;100.00;99354.53;4151444;28;20026;-75
2024/02/25 03:57:48;;;;;;;15.98;2.10;;;7.90;99.90;;;7.21;100.00;99345.69;4152724;28;20029;-75
2024/02/25 03:59:48;;;;;;;9.82;1.95;;;7.90;99.90;;;7.22;100.00;99342.09;4162734;28;20018;-73
2024/02/25 04:01:50;;;;;;;8.20;1.55;;;7.90;99.90;;;7.22;100.00;99337.66;4161478;28;20026;-73
2024/02/25 04:03:51;;;;;;;9.52;2.58;;;7.90;99.90;;;7.25;100.00;99331.25;4151693;28;20068;-73
2024/02/25 04:05:52;;;;;;;15.82;2.08;;;7.90;99.90;;;7.28;100.00;99338.78;4152632;28;20026;-73
2024/02/25 04:07:53;;;;;;;7.97;1.42;;;7.90;99.90;;;7.30;100.00;99325.50;4152555;28;20040;-73
2024/02/25 04:09:53;;;;;;;8.98;1.67;;;7.90;99.90;;;7.28;100.00;99327.47;4151257;28;20509;-73
2024/02/25 04:11:54;;;;;;;9.48;1.98;;;8.00;99.90;;;7.29;100.00;99321.25;4158965;28;20512;-73
2024/02/25 04:13:55;;;;;;;13.55;1.92;;;8.00;99.90;;;7.27;100.00;99308.28;4152426;28;20072;-73
2024/02/25 04:15:56;;;;;;;10.02;1.92;;;8.00;99.90;;;7.23;100.00;99306.97;4151273;28;20037;-73
2024/02/25 04:17:57;;;;;;;8.18;1.52;;;8.00;99.90;;;7.24;100.00;99303.38;4152399;28;20018;-73
2024/02/25 04:19:58;;;;;;;7.70;1.38;;;8.00;99.90;;;7.25;100.00;99297.16;4152741;28;20024;-73
2024/02/25 04:21:59;;;;;;;16.38;1.95;;;8.00;99.90;;;7.25;100.00;99294.53;4162215;28;20374;-73
2024/02/25 04:23:59;;;;;;;7.60;1.88;;;8.00;99.90;;;7.24;100.00;99295.50;4167466;28;20036;-73
2024/02/25 04:26:00;;;;;;;13.38;2.38;;;8.00;99.90;;;7.26;100.00;99293.53;4168386;28;20022;-73
2024/02/25 04:28:02;;;;;;;12.00;2.08;;;8.00;99.90;;;7.26;100.00;99285.66;4168795;28;20056;-73
2024/02/25 04:30:03;;;;;;;5.00;1.05;;;8.00;99.90;;;7.29;100.00;99284.53;4168923;28;20025;-73
2024/02/25 04:32:05;;;;;;;9.60;1.63;;;8.00;99.90;;;7.27;100.00;99276.81;4159092;28;20224;-73
2024/02/25 04:34:06;;;;;;;8.35;1.38;;;8.00;99.90;;;7.28;100.00;99270.59;4152266;28;20037;-73
2024/02/25 04:36:07;;;;;;;11.30;1.40;;;8.00;99.90;;;7.28;100.00;99267.16;4152130;28;20026;-73
2024/02/25 04:38:11;;;;;;;9.15;1.42;;;8.00;99.90;;;7.24;100.00;99257.00;4152163;28;20109;-73
2024/02/25 04:40:13;;;;;;;7.43;1.45;;;8.00;99.90;;;7.27;100.00;99266.31;4150965;28;20026;-73
2024/02/25 04:42:14;;;;;;;13.13;1.45;;;8.00;99.90;;;7.29;100.00;99258.31;4167218;28;20049;-73
2024/02/25 04:44:15;;;;;;;5.43;1.23;;;8.00;99.90;;;7.29;100.00;99243.34;4152472;28;20061;-73
2024/02/25 04:46:16;;;;;;;13.23;1.40;;;8.00;99.90;;;7.28;100.00;99240.91;4157903;28;20029;-73
2024/02/25 04:48:16;;;;;;;11.13;1.80;;;7.90;99.90;;;7.29;100.00;99242.56;4152076;28;20068;-73
2024/02/25 04:50:17;;;;;;;13.10;2.20;;;8.00;99.90;;;7.28;100.00;99227.81;4155460;28;20045;-73
2024/02/25 04:52:20;;;;;;;9.73;1.77;;;8.00;99.90;;;7.29;100.00;99221.59;4169861;28;20023;-73
2024/02/25 04:54:21;;;;;;;5.60;1.27;;;8.00;99.90;;;7.30;100.00;99223.19;4171883;28;20477;-73
2024/02/25 04:56:25;;;;;;;15.85;1.70;;;8.00;99.90;;;7.28;100.00;99220.75;4171706;28;20021;-73
2024/02/25 04:58:26;;;;;;;4.72;1.42;;;8.00;99.90;;;7.27;100.00;99213.88;4171845;28;20052;-73
2024/02/25 05:00:26;;;;;;;7.18;1.40;;;8.00;99.90;;;7.31;100.00;99211.72;4170219;28;20048;-73
2024/02/25 05:02:27;;;;;;;9.00;1.60;;;8.00;99.90;;;7.30;100.00;99203.03;4165705;28;20030;-73
2024/02/25 05:04:28;;;;;;;10.07;2.30;;;8.00;99.90;;;7.30;100.00;99200.41;4155310;28;20030;-73
2024/02/25 05:06:29;;;;;;;10.02;1.52;;;8.00;99.90;;;7.30;100.00;99194.34;4154052;28;20064;-73
2024/02/25 05:08:30;;;;;;;15.15;1.98;;;8.00;99.90;;;7.29;100.00;99184.88;4167209;28;20022;-73
2024/02/25 05:10:30;;;;;;;10.30;2.08;;;8.00;99.90;;;7.31;100.00;99181.06;4171421;28;20078;-73
2024/02/25 05:12:31;;;;;;;7.78;1.85;;;8.00;99.90;;;7.31;100.00;99178.44;4162836;28;20018;-73
2024/02/25 05:14:32;;;;;;;11.48;1.60;;;8.00;99.90;;;7.35;100.00;99176.31;4155099;28;20038;-73
2024/02/25 05:16:33;;;;;;;15.20;1.98;;;8.00;99.90;;;7.34;100.00;99167.63;4155026;28;20022;-73
2024/02/25 05:18:35;;;;;;;10.80;1.70;;;8.00;99.90;;;7.32;100.00;99159.09;4155217;28;20500;-73
2024/02/25 05:20:35;;;;;;;7.60;1.27;;;8.00;99.90;;;7.31;100.00;99149.59;4155086;28;20029;-73
2024/02/25 05:22:36;;;;;;;11.52;2.22;;;8.00;99.90;;;7.32;100.00;99153.84;4166232;28;20025;-73
2024/02/25 05:24:37;;;;;;;9.30;1.35;;;8.00;99.90;;;7.33;100.00;99133.69;4156136;28;20036;-73
2024/02/25 05:26:38;;;;;;;10.52;1.40;;;8.00;99.90;;;7.34;100.00;99132.69;4153660;28;20030;-73
2024/02/25 05:28:39;;;;;;;6.10;1.25;;;8.00;99.90;;;7.29;100.00;99125.34;4154976;28;20030;-73
2024/02/25 05:30:39;;;;;;;12.07;1.63;;;8.00;99.90;;;7.30;100.00;99118.28;4153639;28;20053;-73
2024/02/25 05:32:40;;;;;;;12.63;2.35;;;8.00;99.90;;;7.32;100.00;99121.56;4154292;28;20026;-73
2024/02/25 05:34:41;;;;;;;9.95;2.05;;;8.00;99.90;;;7.32;100.00;99106.63;4160229;28;20038;-73
2024/02/25 05:36:42;;;;;;;9.93;2.67;;;8.00;99.90;;;7.28;100.00;99110.59;4171257;28;20022;-73
2024/02/25 05:38:43;;;;;;;6.53;1.75;;;8.00;99.90;;;7.34;100.00;99096.78;4171181;28;20022;-73
2024/02/25 05:40:44;;;;;;;7.25;1.98;;;8.00;99.90;;;7.34;100.00;99101.22;4169622;28;20167;-73
2024/02/25 05:42:45;;;;;;;5.70;1.00;;;8.00;99.90;;;7.29;100.00;99086.00;4166732;28;20025;-73
2024/02/25 05:44:46;;;;;;;7.65;1.55;;;8.00;99.90;;;7.34;100.00;99083.69;4153573;28;20025;-73
2024/02/25 05:46:46;;;;;;;11.80;2.00;;;8.00;99.90;;;7.32;100.00;99072.53;4160066;28;20029;-73
2024/02/25 05:48:47;;;;;;;11.73;1.85;;;8.00;99.90;;;7.28;100.00;99059.97;4153205;28;20046;-73
2024/02/25 05:50:48;;;;;;;5.45;1.38;;;8.00;99.90;;;7.30;100.00;99061.41;4154583;28;20025;-73
2024/02/25 05:52:49;;;;;;;5.95;1.17;;;8.00;99.90;;;7.30;100.00;99064.03;4163205;28;20033;-73
2024/02/25 05:54:50;;;;;;;8.43;1.27;;;8.00;99.90;;;7.31;100.00;99054.34;4153298;28;20037;-73
2024/02/25 05:56:51;;;;;;;5.60;1.58;;;8.00;99.90;;;7.31;100.00;99042.06;4154175;28;20025;-73
2024/02/25 05:58:51;;;;;;;3.00;1.40;;;8.00;99.90;;;7.34;100.00;99041.72;4154388;28;20032;-73
2024/02/25 06:00:52;;;;;;;8.85;1.17;;;8.00;99.90;;;7.31;100.00;99030.75;4154940;28;20014;-73
2024/02/25 06:02:53;;;;;;;8.00;1.55;;;8.00;99.90;;;7.32;100.00;99027.16;4169624;28;20026;-73
2024/02/25 06:04:54;;;;;;;6.78;1.70;;;8.00;99.90;;;7.34;100.00;99025.16;4155777;28;20184;-73
2024/02/25 06:06:55;;;;;;;8.70;1.98;;;8.00;99.90;;;7.31;100.00;99018.47;4157867;28;20029;-73
2024/02/25 06:08:56;;;;;;;4.40;1.30;;;8.00;99.90;;;7.35;100.00;99011.06;4153054;28;20026;-73
2024/02/25 06:10:56;;;;;;;5.70;1.48;;;8.00;99.90;;;7.35;100.00;99008.44;4170449;28;20033;-73
2024/02/25 06:12:57;;;;;;;6.63;1.35;;;8.00;99.90;;;7.36;100.00;99008.25;4156352;28;20033;-73
2024/02/25 06:14:58;;;;;;;5.45;1.42;;;8.00;99.90;;;7.35;100.00;98990.88;4154256;28;20060;-73
2024/02/25 06:16:59;;;;;;;7.93;1.27;;;8.00;99.90;;;7.40;100.00;98991.16;4154238;28;20400;-73
2024/02/25 06:19:01;;;;;;;6.22;1.17;;;8.00;99.90;;;7.39;100.00;98975.59;4153947;28;20393;-73
2024/02/25 06:21:02;;;;;;;3.85;1.15;;;8.00;99.90;;;7.40;100.00;98988.53;4154260;28;20049;-73
2024/02/25 06:23:03;;;;;;;6.55;0.98;;;8.10;99.90;;;7.39;100.00;98981.66;4157105;28;20455;-73
2024/02/25 06:25:05;;;;;;;6.07;1.23;;;8.10;99.90;;;7.39;100.00;98981.66;4169157;28;20507;-73
2024/02/25 06:27:06;;;;;;;5.53;1.42;;;8.10;99.90;;;7.43;100.00;98972.44;4169251;28;20068;-73
2024/02/25 06:29:07;;;;;;;7.95;1.27;;;8.10;99.90;;;7.42;100.00;98968.19;4185614;28;20439;-73
2024/02/25 06:31:08;;;;;;;4.05;1.00;;;8.10;99.90;;;7.43;100.00;98961.13;4170204;28;20025;-73
2024/02/25 06:33:09;;;;;;;6.80;0.90;;;8.10;99.90;;;7.42;100.00;98960.31;4164784;28;20030;-73
2024/02/25 06:35:12;;;;;;;4.65;1.63;;;8.10;99.90;;;7.43;100.00;98950.66;4152780;28;20045;-73
2024/02/25 06:37:16;;;;;;;4.18;1.17;;;8.10;99.90;;;7.43;100.00;98942.78;4168909;28;20029;-73
2024/02/25 06:39:17;;;;;;;4.05;0.75;;;8.10;99.90;;;7.43;100.00;98943.59;4153938;28;20034;-73
2024/02/25 06:41:19;;;;;;;5.40;1.27;;;8.10;99.90;;;7.44;100.00;98939.97;4159170;28;20077;-73
2024/02/25 06:43:23;;;;;;;7.78;1.08;;;8.10;99.90;;;7.43;100.00;98934.91;4160619;28;20030;-73
2024/02/25 06:45:24;;;;;;;5.70;0.93;;;8.10;99.90;;;7.42;100.00;98928.84;4157384;28;20018;-73
2024/02/25 06:47:25;;;;;;;4.28;1.02;;;8.10;99.90;;;7.45;100.00;98918.00;4153881;28;20452;-73
2024/02/25 06:49:28;;;;;;;5.40;1.17;;;8.10;99.90;;;7.46;100.00;98919.63;4153393;28;20046;-74
2024/02/25 06:51:29;;;;;;;5.28;0.95;;;8.10;99.90;;;7.42;100.00;98920.97;4173692;28;20090;-74
2024/02/25 06:53:31;;;;;;;3.28;0.60;;;8.10;99.90;;;7.43;100.00;98914.75;4155124;28;20418;-74
2024/02/25 06:55:32;;;;;;;2.65;0.70;;;8.10;99.90;;;7.43;100.00;98909.50;4153698;28;20034;-73
2024/02/25 06:57:33;;;;;;;2.88;0.70;;;8.10;99.90;;;7.39;100.00;98897.72;4153654;28;20022;-74
2024/02/25 06:59:34;;;;;;;6.60;1.33;;;8.10;99.90;;;7.47;100.00;98899.44;4153588;28;20030;-73
2024/02/25 07:01:34;;;;;;;1.52;0.40;;;8.10;99.90;;;7.46;100.00;98903.88;4158670;28;20480;-73
2024/02/25 07:03:35;;;;;;;3.85;0.80;;;8.10;99.90;;;7.48;100.00;98899.25;4168051;28;20108;-73
2024/02/25 07:05:36;;;;;;;4.32;0.93;;;8.10;99.90;;;7.47;100.00;98897.63;4153468;28;20041;-73
2024/02/25 07:07:38;;;;;;;1.90;0.70;;;8.10;99.90;;;7.49;100.00;98882.53;4154657;28;20042;-73
2024/02/25 07:09:39;;;;;;;2.63;0.57;;;8.10;99.90;;;7.48;100.00;98875.66;4153339;28;20030;-73
2024/02/25 07:11:40;;;;;;;2.45;0.55;;;8.20;99.90;;;7.51;100.00;98869.22;4155374;28;20022;-73
2024/02/25 07:13:42;;;;;;;3.83;0.60;;;8.20;99.90;;;7.53;100.00;98873.28;4152338;28;20057;-73
2024/02/25 07:15:43;;;;;;;1.63;0.50;;;8.20;99.90;;;7.50;100.00;98863.16;4153337;28;20026;-73
2024/02/25 07:17:46;;;;;;;3.15;0.47;;;8.20;99.90;;;7.56;100.00;98866.84;4152074;28;20084;-73
2024/02/25 07:19:47;;;;;;;1.33;0.40;;;8.20;99.90;;;7.54;100.00;98858.38;4153496;28;20028;-74
2024/02/25 07:21:48;;;;;;;4.57;0.80;;;8.20;99.90;;;7.54;100.00;98853.94;4153498;28;20030;-74
2024/02/25 07:23:49;;;;;;;2.55;0.50;;;8.20;99.90;;;7.57;100.00;98850.94;4161889;28;20044;-74
2024/02/25 07:25:50;;;;;;;1.33;0.43;;;8.20;99.90;;;7.57;100.00;98848.31;4169281;28;20026;-74
2024/02/25 07:27:51;;;;;;;3.83;0.80;;;8.20;99.90;;;7.61;100.00;98846.97;4169308;28;20128;-74
2024/02/25 07:29:52;;;;;;;2.30;0.63;;;8.20;99.90;;;7.60;100.00;98844.53;4169525;28;20037;-74
2024/02/25 07:31:53;;;;;;;1.13;0.45;;;8.20;99.90;;;7.55;100.00;98831.16;4168043;28;20172;-74
2024/02/25 07:33:54;;;;;;;2.13;0.60;;;8.20;99.90;;;7.60;100.00;98837.47;4157772;28;20034;-74
2024/02/25 07:35:55;;;;;;;1.35;0.40;;;8.20;99.90;;;7.57;100.00;98829.97;4151750;28;20021;-74
2024/02/25 07:37:56;;;;;;;1.73;0.50;;;8.20;99.90;;;7.60;100.00;98816.47;4153046;28;20437;-74
2024/02/25 07:39:57;;;;;;;2.83;0.75;;;8.30;99.90;;;7.61;100.00;98814.66;4151774;28;20022;-74
2024/02/25 07:41:57;;;;;;;1.90;0.50;;;8.20;99.90;;;7.62;100.00;98813.66;4175659;28;20029;-74
2024/02/25 07:43:58;;;;;;;1.23;0.60;;;8.30;99.90;;;7.62;100.00;98814.47;4154958;28;20026;-74
2024/02/25 07:46:00;;;;;;;1.10;0.63;;;8.30;99.90;;;7.64;100.00;98804.63;4158401;28;20056;-73
2024/02/25 07:48:02;;;;;;;1.60;0.45;;;8.30;99.90;;;7.64;100.00;98801.19;4152636;28;20021;-73
2024/02/25 07:50:03;;;;;;;1.98;0.60;;;8.30;99.90;;;7.66;100.00;98805.25;4151566;28;20041;-73
2024/02/25 07:52:04;;;;;;;1.40;0.60;;;8.30;99.90;;;7.70;100.00;98796.00;4161116;28;20061;-73
2024/02/25 07:54:05;;;;;;;1.05;0.43;;;8.30;99.90;;;7.70;100.00;98801.25;4167674;28;20037;-73
2024/02/25 07:56:06;;;;;;;2.05;0.75;;;8.30;99.90;;;7.68;100.00;98787.50;4152532;28;20018;-73
2024/02/25 07:58:07;;;;;;;1.63;0.73;;;8.40;99.90;;;7.72;100.00;98787.94;4151666;28;20030;-73
2024/02/25 08:00:09;;;;;;;1.92;0.70;;;8.40;99.90;;;7.70;100.00;98780.28;4156198;28;20024;-74
2024/02/25 08:02:10;;;;;;;1.10;0.55;;;8.40;99.90;;;7.72;100.00;98773.00;4151284;28;20018;-74
2024/02/25 08:04:11;;;;;;;1.58;0.68;;;8.40;99.90;;;7.76;100.00;98778.72;4169005;28;20028;-73
2024/02/25 08:06:12;;;;;;;1.65;0.70;;;8.40;99.90;;;7.74;100.00;98764.94;4168804;28;20443;-74
2024/02/25 08:08:13;;;;;;;1.70;0.75;;;8.40;99.90;;;7.73;100.00;98766.78;4168911;28;20044;-74
2024/02/25 08:10:15;;;;;;;0.80;0.55;;;8.40;99.90;;;7.71;100.00;98766.13;4168564;28;20029;-73
2024/02/25 08:12:16;;;;;;;1.27;0.35;;;8.40;99.90;;;7.72;100.00;98767.75;4167740;28;20484;-74
2024/02/25 08:14:17;;;;;;;1.75;0.60;;;8.40;99.90;;;7.76;100.00;98763.75;4168802;28;20040;-73
2024/02/25 08:16:19;;;;;;;1.33;0.55;;;8.40;99.90;;;7.80;100.00;98751.91;4167634;28;20037;-73
2024/02/25 08:18:20;;;;;;;2.03;0.93;;;8.40;99.90;;;7.80;100.00;98749.28;4167477;28;20089;-74
2024/02/25 08:20:21;;;;;;;2.40;0.80;;;8.40;99.90;;;7.76;100.00;98755.88;4167467;28;20036;-74
2024/02/25 08:22:23;;;;;;;3.22;0.90;;;8.50;99.90;;;7.80;100.00;98753.69;4158076;28;20018;-73
2024/02/25 08:24:24;;;;;;;1.55;0.63;;;8.50;99.90;;;7.82;100.00;98753.53;4165464;28;20030;-73
2024/02/25 08:26:25;;;;;;;1.15;0.65;;;8.50;99.90;;;7.82;100.00;98760.38;4167437;28;20519;-74
2024/02/25 08:28:25;;;;;;;2.38;1.50;;;8.50;99.90;;;7.85;100.00;98745.28;4184047;28;20040;-74
2024/02/25 08:30:26;;;;;;;1.17;0.45;;;8.50;99.90;;;7.85;100.00;98747.91;4168737;28;20033;-73
2024/02/25 08:32:27;;;;;;;1.30;0.38;;;8.50;99.90;;;7.86;100.00;98752.94;4167944;28;20041;-74
2024/02/25 08:34:28;;;;;;;0.43;0.30;;;8.50;99.90;;;7.84;100.00;98749.72;4152354;28;20086;-74